createdAt,value
2023-03-22T00:00:56.610Z,14.10
2023-03-22T00:03:24.298Z,14.20
2023-03-22T00:05:57.075Z,14.27
2023-03-22T00:08:23.679Z,15.10
2023-03-22T00:10:50.365Z,15.15
2023-03-22T00:13:16.908Z,15.20
2023-03-22T00:15:45.599Z,14.38
2023-03-22T00:18:12.419Z,14.52
2023-03-22T00:20:40.336Z,15.18
2023-03-22T00:23:09.019Z,14.48
2023-03-22T00:25:35.942Z,15.32
2023-03-22T00:28:02.479Z,15.18
2023-03-22T00:30:29.028Z,16.23
2023-03-22T00:32:55.637Z,16.63
2023-03-22T00:35:22.287Z,17.10
2023-03-22T00:37:51.555Z,18.85
2023-03-22T00:40:18.445Z,18.30
2023-03-22T00:42:45.224Z,18.25
2023-03-22T00:45:12.641Z,19.08
2023-03-22T00:47:39.468Z,19.55
2023-03-22T00:50:08.284Z,19.20
2023-03-22T00:52:35.970Z,19.10
2023-03-22T00:55:02.541Z,18.70
2023-03-22T00:57:29.092Z,18.98
2023-03-22T00:59:55.797Z,19.80
2023-03-22T01:02:29.746Z,20.35
2023-03-22T01:04:56.642Z,20.30
2023-03-22T01:07:24.004Z,20.63
2023-03-22T01:09:51.957Z,19.98
2023-03-22T01:12:19.692Z,20.02
2023-03-22T01:14:46.357Z,19.88
2023-03-22T01:17:12.952Z,20.48
2023-03-22T01:19:39.717Z,19.73
2023-03-22T01:22:07.179Z,20.55
2023-03-22T01:24:33.997Z,20.67
2023-03-22T01:27:00.717Z,19.38
2023-03-22T01:29:27.331Z,20.05
2023-03-22T01:31:53.948Z,19.95
2023-03-22T01:34:20.668Z,20.25
2023-03-22T01:36:47.277Z,20.23
2023-03-22T01:39:14.951Z,21.25
2023-03-22T01:41:41.594Z,19.48
2023-03-22T01:44:15.354Z,19.08
2023-03-22T01:46:43.988Z,20.08
2023-03-22T01:49:19.256Z,21.45
2023-03-22T01:51:47.464Z,20.25
2023-03-22T01:54:21.827Z,19.00
2023-03-22T01:56:49.076Z,21.13
2023-03-22T01:59:15.938Z,22.40
2023-03-22T02:01:42.725Z,21.65
2023-03-22T02:04:19.910Z,21.63
2023-03-22T02:06:48.165Z,20.50
2023-03-22T02:09:17.379Z,19.50
2023-03-22T02:11:51.145Z,19.73
2023-03-22T02:14:27.543Z,17.83
2023-03-22T02:17:10.267Z,19.38
2023-03-22T02:20:15.405Z,17.80
2023-03-22T02:22:41.994Z,18.23
2023-03-22T02:25:38.744Z,17.50
2023-03-22T02:28:10.209Z,17.02
2023-03-22T02:31:09.188Z,17.55
2023-03-22T02:34:16.305Z,18.02
2023-03-22T02:37:17.357Z,15.73
2023-03-22T02:40:11.805Z,16.00
2023-03-22T02:42:59.220Z,15.05
2023-03-22T02:45:31.673Z,15.23
2023-03-22T02:48:16.871Z,14.45
2023-03-22T02:51:16.395Z,14.43
2023-03-22T02:53:52.265Z,13.50
2023-03-22T02:56:25.267Z,13.15
2023-03-22T02:58:55.597Z,13.52
2023-03-22T03:01:38.118Z,12.98
2023-03-22T03:04:10.994Z,12.45
2023-03-22T03:06:46.098Z,12.52
2023-03-22T03:09:17.961Z,11.95
2023-03-22T03:11:47.706Z,11.55
2023-03-22T03:14:25.912Z,11.73
2023-03-22T03:17:22.343Z,11.05
2023-03-22T03:20:08.541Z,10.85
2023-03-22T03:22:59.877Z,11.35
2023-03-22T03:25:44.094Z,10.15
2023-03-22T03:28:38.105Z,10.75
2023-03-22T03:31:20.319Z,10.30
2023-03-22T03:34:24.337Z,9.65
2023-03-22T03:37:01.699Z,9.88
2023-03-22T03:39:33.145Z,9.00
2023-03-22T03:42:02.375Z,9.50
2023-03-22T03:44:31.047Z,8.95
2023-03-22T03:46:58.491Z,8.88
2023-03-22T03:49:27.022Z,9.45
2023-03-22T03:51:55.335Z,9.50
2023-03-22T03:54:23.028Z,9.02
2023-03-22T03:56:49.810Z,9.27
2023-03-22T03:59:17.542Z,9.25
2023-03-22T04:01:53.442Z,8.43
2023-03-22T04:04:26.685Z,9.00
2023-03-22T04:07:01.527Z,8.02
2023-03-22T04:09:36.734Z,7.65
2023-03-22T04:12:03.704Z,8.10
2023-03-22T04:14:30.702Z,8.27
2023-03-22T04:16:57.329Z,8.27
2023-03-22T04:19:24.197Z,9.63
2023-03-22T04:21:52.977Z,9.65
2023-03-22T04:24:21.750Z,9.25
2023-03-22T04:26:48.727Z,10.32
2023-03-22T04:29:16.052Z,9.70
2023-03-22T04:31:42.633Z,9.63
2023-03-22T04:34:09.254Z,10.18
2023-03-22T04:36:39.284Z,9.77
2023-03-22T04:39:08.877Z,9.60
2023-03-22T04:41:37.049Z,9.73
2023-03-22T04:44:07.314Z,9.27
2023-03-22T04:46:36.411Z,9.93
2023-03-22T04:49:03.960Z,10.05
2023-03-22T04:51:31.953Z,9.23
2023-03-22T04:53:58.854Z,9.32
2023-03-22T04:56:25.746Z,10.02
2023-03-22T04:58:52.582Z,11.60
2023-03-22T05:01:19.150Z,10.25
2023-03-22T05:03:47.286Z,10.80
2023-03-22T05:06:14.805Z,10.98
2023-03-22T05:08:41.722Z,10.27
2023-03-22T05:11:15.187Z,10.55
2023-03-22T05:13:42.196Z,10.98
2023-03-22T05:16:10.520Z,9.77
2023-03-22T05:18:42.425Z,9.60
2023-03-22T05:21:15.528Z,10.10
2023-03-22T05:23:43.448Z,9.65
2023-03-22T05:26:11.096Z,11.20
2023-03-22T05:28:38.504Z,9.45
2023-03-22T05:31:05.628Z,8.68
2023-03-22T05:33:34.707Z,8.85
2023-03-22T05:36:01.301Z,8.45
2023-03-22T05:38:28.381Z,8.80
2023-03-22T05:40:55.152Z,9.13
2023-03-22T05:43:21.747Z,8.82
2023-03-22T05:45:49.043Z,8.55
2023-03-22T05:48:16.102Z,8.38
2023-03-22T05:50:42.764Z,9.13
2023-03-22T05:53:09.828Z,8.20
2023-03-22T05:55:36.426Z,8.18
2023-03-22T05:58:05.287Z,8.57
2023-03-22T06:00:32.224Z,7.85
2023-03-22T06:03:03.157Z,8.45
2023-03-22T06:05:36.550Z,7.60
2023-03-22T06:08:03.915Z,7.55
2023-03-22T06:10:30.838Z,7.20
2023-03-22T06:12:57.396Z,7.15
2023-03-22T06:15:23.971Z,7.70
2023-03-22T06:17:50.681Z,7.22
2023-03-22T06:20:17.327Z,7.00
2023-03-22T06:22:43.932Z,7.63
2023-03-22T06:25:11.271Z,7.72
2023-03-22T06:27:38.175Z,7.03
2023-03-22T06:30:06.091Z,7.47
2023-03-22T06:32:32.624Z,8.20
2023-03-22T06:34:59.190Z,8.63
2023-03-22T06:37:26.048Z,8.18
2023-03-22T06:39:52.938Z,8.70
2023-03-22T06:42:20.229Z,8.77
2023-03-22T06:44:46.926Z,9.57
2023-03-22T06:47:13.637Z,9.23
2023-03-22T06:49:40.775Z,9.45
2023-03-22T06:52:07.780Z,9.73
2023-03-22T06:54:34.732Z,9.95
2023-03-22T06:57:01.363Z,10.05
2023-03-22T06:59:28.134Z,9.65
2023-03-22T07:01:54.865Z,10.63
2023-03-22T07:04:21.552Z,10.60
2023-03-22T07:06:48.208Z,9.90
2023-03-22T07:09:14.896Z,10.75
2023-03-22T07:11:41.621Z,9.70
2023-03-22T07:14:08.324Z,9.68
2023-03-22T07:16:34.874Z,9.45
2023-03-22T07:19:01.665Z,10.00
2023-03-22T07:21:28.366Z,12.88
2023-03-22T07:23:55.436Z,10.00
2023-03-22T07:26:22.052Z,9.95
2023-03-22T07:28:48.604Z,10.93
2023-03-22T07:31:17.001Z,8.55
2023-03-22T07:33:43.738Z,10.52
2023-03-22T07:36:11.131Z,8.82
2023-03-22T07:38:37.865Z,8.43
2023-03-22T07:41:04.863Z,8.68
2023-03-22T07:43:32.951Z,8.57
2023-03-22T07:46:01.964Z,8.02
2023-03-22T07:48:31.042Z,8.60
2023-03-22T07:50:58.075Z,8.23
2023-03-22T07:53:24.950Z,8.13
2023-03-22T07:55:51.531Z,7.88
2023-03-22T07:58:18.102Z,7.28
2023-03-22T08:00:44.723Z,7.10
2023-03-22T08:03:13.214Z,7.07
2023-03-22T08:05:43.528Z,7.10
2023-03-22T08:08:11.003Z,6.68
2023-03-22T08:10:40.601Z,7.00
2023-03-22T08:13:07.757Z,6.88
2023-03-22T08:15:34.464Z,6.30
2023-03-22T08:18:01.024Z,6.32
2023-03-22T08:20:27.642Z,6.55
2023-03-22T08:22:55.354Z,5.90
2023-03-22T08:25:23.444Z,5.53
2023-03-22T08:27:50.151Z,6.20
2023-03-22T08:30:16.923Z,5.47
2023-03-22T08:32:43.763Z,5.78
2023-03-22T08:35:11.094Z,5.85
2023-03-22T08:37:37.704Z,7.07
2023-03-22T08:40:09.404Z,5.68
2023-03-22T08:42:36.488Z,5.50
2023-03-22T08:45:04.012Z,4.90
2023-03-22T08:47:31.495Z,5.07
2023-03-22T08:49:58.048Z,4.82
2023-03-22T08:52:24.704Z,5.00
2023-03-22T08:54:53.254Z,4.95
2023-03-22T08:57:21.952Z,5.13
2023-03-22T08:59:48.738Z,5.78
2023-03-22T09:02:16.364Z,4.82
2023-03-22T09:04:43.427Z,5.88
2023-03-22T09:07:10.497Z,4.35
2023-03-22T09:09:37.190Z,4.55
2023-03-22T09:12:03.915Z,4.72
2023-03-22T09:14:30.614Z,5.10
2023-03-22T09:16:57.554Z,5.55
2023-03-22T09:19:24.105Z,7.53
2023-03-22T09:21:50.692Z,4.40
2023-03-22T09:24:17.732Z,4.45
2023-03-22T09:26:44.592Z,4.95
2023-03-22T09:29:11.374Z,4.03
2023-03-22T09:31:38.090Z,3.80
2023-03-22T09:34:04.700Z,3.08
2023-03-22T09:36:32.413Z,3.65
2023-03-22T09:38:59.343Z,3.90
2023-03-22T09:41:44.005Z,3.47
2023-03-22T09:44:41.906Z,3.65
2023-03-22T09:47:16.353Z,3.67
2023-03-22T09:49:53.868Z,3.33
2023-03-22T09:52:21.105Z,3.35
2023-03-22T09:54:47.990Z,3.60
2023-03-22T09:57:38.836Z,2.95
2023-03-22T10:00:32.939Z,4.93
2023-03-22T10:03:36.643Z,4.07
2023-03-22T10:06:07.646Z,2.67
2023-03-22T10:08:46.626Z,3.03
2023-03-22T10:11:35.870Z,2.92
2023-03-22T10:14:24.654Z,3.08
2023-03-22T10:16:55.384Z,1.92
2023-03-22T10:19:34.957Z,2.42
2023-03-22T10:22:03.951Z,3.78
2023-03-22T10:24:34.941Z,2.90
2023-03-22T10:27:02.499Z,2.55
2023-03-22T10:29:38.013Z,2.78
2023-03-22T10:32:17.738Z,2.55
2023-03-22T10:34:45.323Z,2.33
2023-03-22T10:37:19.598Z,2.63
2023-03-22T10:39:50.825Z,2.60
2023-03-22T10:42:21.394Z,1.90
2023-03-22T10:44:59.136Z,2.55
2023-03-22T10:47:45.708Z,2.03
2023-03-22T10:50:21.209Z,1.48
2023-03-22T10:53:08.648Z,1.40
2023-03-22T10:55:45.498Z,1.85
2023-03-22T10:58:20.436Z,1.50
2023-03-22T11:00:56.941Z,1.10
2023-03-22T11:03:27.354Z,1.27
2023-03-22T11:06:24.957Z,1.65
2023-03-22T11:08:54.106Z,1.90
2023-03-22T11:11:27.507Z,1.58
2023-03-22T11:13:59.887Z,2.05
2023-03-22T11:16:27.180Z,1.50
2023-03-22T11:18:55.651Z,2.88
2023-03-22T11:21:28.597Z,1.85
2023-03-22T11:24:03.493Z,1.73
2023-03-22T11:26:35.747Z,2.40
2023-03-22T11:29:14.402Z,2.70
2023-03-22T11:32:00.265Z,2.67
2023-03-22T11:34:29.688Z,2.63
2023-03-22T11:36:59.422Z,2.53
2023-03-22T11:39:28.720Z,2.25
2023-03-22T11:42:04.052Z,1.70
2023-03-22T11:44:37.705Z,2.22
2023-03-22T11:47:07.678Z,1.50
2023-03-22T11:49:47.526Z,1.23
2023-03-22T11:52:21.705Z,1.48
2023-03-22T11:54:48.922Z,1.40
2023-03-22T11:57:21.560Z,1.50
2023-03-22T11:59:55.887Z,1.45
2023-03-22T12:02:23.542Z,1.52
2023-03-22T12:04:53.450Z,1.58
2023-03-22T12:07:24.567Z,2.08
2023-03-22T12:10:19.938Z,2.42
2023-03-22T12:13:00.295Z,1.67
2023-03-22T12:15:30.880Z,1.70
2023-03-22T12:18:19.444Z,4.20
2023-03-22T12:20:55.780Z,3.00
2023-03-22T12:23:31.521Z,3.60
2023-03-22T12:26:09.885Z,2.53
2023-03-22T12:28:40.614Z,4.28
2023-03-22T12:31:15.601Z,3.70
2023-03-22T12:33:48.806Z,3.08
2023-03-22T12:36:19.031Z,10.05
2023-03-22T12:38:57.649Z,3.15
2023-03-22T12:41:31.216Z,2.30
2023-03-22T12:44:26.802Z,2.45
2023-03-22T12:46:58.112Z,2.30
2023-03-22T12:49:41.404Z,3.67
2023-03-22T12:53:17.602Z,3.45
2023-03-22T12:55:46.236Z,2.28
2023-03-22T12:58:18.212Z,2.25
2023-03-22T13:01:01.170Z,3.55
2023-03-22T13:03:51.980Z,2.90
2023-03-22T13:06:46.554Z,2.92
2023-03-22T13:09:18.524Z,7.45
2023-03-22T13:12:06.093Z,2.75
2023-03-22T13:14:51.250Z,2.70
2023-03-22T13:17:39.884Z,2.83
2023-03-22T13:20:14.672Z,2.70
2023-03-22T13:22:41.626Z,2.78
2023-03-22T13:25:12.974Z,3.65
2023-03-22T13:27:45.794Z,2.58
2023-03-22T13:30:24.359Z,2.20
2023-03-22T13:32:56.295Z,2.45
2023-03-22T13:35:51.000Z,2.53
2023-03-22T13:38:21.902Z,2.63
2023-03-22T13:41:09.548Z,2.33
2023-03-22T13:43:39.142Z,3.70
2023-03-22T13:46:06.005Z,2.92
2023-03-22T13:48:48.413Z,2.45
2023-03-22T13:51:25.458Z,4.63
2023-03-22T13:54:13.289Z,2.67
2023-03-22T13:57:00.822Z,2.80
2023-03-22T13:59:27.705Z,3.28
2023-03-22T14:02:02.584Z,4.82
2023-03-22T14:04:34.847Z,6.55
2023-03-22T14:07:11.757Z,6.10
2023-03-22T14:09:50.472Z,2.72
2023-03-22T14:12:36.453Z,3.70
2023-03-22T14:15:06.700Z,6.45
2023-03-22T14:17:41.613Z,3.53
2023-03-22T14:20:17.042Z,3.58
